sensor_id;sensor_type;location;lat;lon;timestamp;P1;durP1;ratioP1;P2;durP2;ratioP2
4047;SDS011;2038;51.728;6.674;2024-03-23T00:54:50;3.47;;;3.17;;
4047;SDS011;2038;51.728;6.674;2024-03-23T00:57:17;9.40;;;4.00;;
4047;SDS011;2038;51.728;6.674;2024-03-23T00:59:43;8.70;;;4.63;;
4047;SDS011;2038;51.728;6.674;2024-03-23T01:02:09;9.73;;;3.53;;
4047;SDS011;2038;51.728;6.674;2024-03-23T01:04:35;8.17;;;3.37;;
4047;SDS011;2038;51.728;6.674;2024-03-23T01:07:02;7.43;;;3.60;;
4047;SDS011;2038;51.728;6.674;2024-03-23T01:09:28;6.07;;;3.27;;
4047;SDS011;2038;51.728;6.674;2024-03-23T01:11:54;3.60;;;2.87;;
4047;SDS011;2038;51.728;6.674;2024-03-23T01:14:20;5.50;;;3.13;;
4047;SDS011;2038;51.728;6.674;2024-03-23T01:16:47;4.63;;;2.83;;
4047;SDS011;2038;51.728;6.674;2024-03-23T01:19:13;6.80;;;3.20;;
4047;SDS011;2038;51.728;6.674;2024-03-23T01:24:25;3.40;;;2.80;;
4047;SDS011;2038;51.728;6.674;2024-03-23T01:26:51;9.57;;;3.60;;
4047;SDS011;2038;51.728;6.674;2024-03-23T01:29:17;5.40;;;3.70;;
4047;SDS011;2038;51.728;6.674;2024-03-23T01:31:44;12.00;;;4.10;;
4047;SDS011;2038;51.728;6.674;2024-03-23T01:34:10;4.13;;;2.77;;
4047;SDS011;2038;51.728;6.674;2024-03-23T01:36:37;3.70;;;2.67;;
4047;SDS011;2038;51.728;6.674;2024-03-23T01:39:04;7.07;;;3.10;;
4047;SDS011;2038;51.728;6.674;2024-03-23T01:41:30;6.90;;;2.73;;
4047;SDS011;2038;51.728;6.674;2024-03-23T01:43:56;6.20;;;3.50;;
4047;SDS011;2038;51.728;6.674;2024-03-23T01:46:22;10.40;;;4.27;;
4047;SDS011;2038;51.728;6.674;2024-03-23T01:49:08;4.30;;;3.00;;
4047;SDS011;2038;51.728;6.674;2024-03-23T01:54:39;6.90;;;3.10;;
4047;SDS011;2038;51.728;6.674;2024-03-23T01:57:07;11.63;;;4.10;;
4047;SDS011;2038;51.728;6.674;2024-03-23T01:59:47;9.00;;;3.20;;
4047;SDS011;2038;51.728;6.674;2024-03-23T02:02:14;8.43;;;3.80;;
4047;SDS011;2038;51.728;6.674;2024-03-23T02:04:42;14.93;;;4.17;;
4047;SDS011;2038;51.728;6.674;2024-03-23T02:07:08;9.37;;;3.60;;
4047;SDS011;2038;51.728;6.674;2024-03-23T02:09:35;7.13;;;3.80;;
4047;SDS011;2038;51.728;6.674;2024-03-23T02:12:02;8.00;;;3.80;;
4047;SDS011;2038;51.728;6.674;2024-03-23T02:14:28;8.60;;;3.23;;
4047;SDS011;2038;51.728;6.674;2024-03-23T02:16:54;7.03;;;4.00;;
4047;SDS011;2038;51.728;6.674;2024-03-23T02:19:21;10.73;;;3.70;;
4047;SDS011;2038;51.728;6.674;2024-03-23T02:21:47;6.07;;;3.17;;
4047;SDS011;2038;51.728;6.674;2024-03-23T02:24:13;17.17;;;4.00;;
4047;SDS011;2038;51.728;6.674;2024-03-23T02:26:39;9.90;;;3.23;;
4047;SDS011;2038;51.728;6.674;2024-03-23T02:29:06;10.03;;;3.50;;
4047;SDS011;2038;51.728;6.674;2024-03-23T02:31:34;5.90;;;2.60;;
4047;SDS011;2038;51.728;6.674;2024-03-23T02:34:01;7.20;;;3.60;;
4047;SDS011;2038;51.728;6.674;2024-03-23T02:36:39;11.80;;;3.80;;
4047;SDS011;2038;51.728;6.674;2024-03-23T02:39:05;9.87;;;3.40;;
4047;SDS011;2038;51.728;6.674;2024-03-23T02:41:44;11.03;;;4.13;;
4047;SDS011;2038;51.728;6.674;2024-03-23T02:44:10;7.20;;;3.07;;
4047;SDS011;2038;51.728;6.674;2024-03-23T02:46:37;3.87;;;3.37;;
4047;SDS011;2038;51.728;6.674;2024-03-23T02:49:09;4.47;;;3.73;;
4047;SDS011;2038;51.728;6.674;2024-03-23T02:51:36;6.20;;;3.70;;
4047;SDS011;2038;51.728;6.674;2024-03-23T02:54:02;11.27;;;3.50;;
4047;SDS011;2038;51.728;6.674;2024-03-23T02:56:37;11.47;;;4.43;;
4047;SDS011;2038;51.728;6.674;2024-03-23T02:59:04;7.10;;;4.60;;
4047;SDS011;2038;51.728;6.674;2024-03-23T03:01:42;10.27;;;4.07;;
4047;SDS011;2038;51.728;6.674;2024-03-23T03:04:08;9.03;;;3.47;;
4047;SDS011;2038;51.728;6.674;2024-03-23T03:06:35;5.80;;;3.20;;
4047;SDS011;2038;51.728;6.674;2024-03-23T03:09:02;10.83;;;4.10;;
4047;SDS011;2038;51.728;6.674;2024-03-23T03:11:28;14.63;;;3.60;;
4047;SDS011;2038;51.728;6.674;2024-03-23T03:14:06;8.47;;;4.13;;
4047;SDS011;2038;51.728;6.674;2024-03-23T03:16:33;6.93;;;3.93;;
4047;SDS011;2038;51.728;6.674;2024-03-23T03:18:59;9.07;;;4.40;;
4047;SDS011;2038;51.728;6.674;2024-03-23T03:21:26;10.23;;;4.43;;
4047;SDS011;2038;51.728;6.674;2024-03-23T03:23:52;17.53;;;4.80;;
4047;SDS011;2038;51.728;6.674;2024-03-23T03:26:21;9.20;;;4.43;;
4047;SDS011;2038;51.728;6.674;2024-03-23T03:28:48;7.37;;;5.23;;
4047;SDS011;2038;51.728;6.674;2024-03-23T03:34:00;12.17;;;5.20;;
4047;SDS011;2038;51.728;6.674;2024-03-23T03:36:27;10.03;;;4.03;;
4047;SDS011;2038;51.728;6.674;2024-03-23T03:39:06;13.63;;;4.53;;
4047;SDS011;2038;51.728;6.674;2024-03-23T03:41:32;6.43;;;3.50;;
4047;SDS011;2038;51.728;6.674;2024-03-23T03:43:58;19.73;;;4.50;;
4047;SDS011;2038;51.728;6.674;2024-03-23T03:46:28;14.27;;;4.47;;
4047;SDS011;2038;51.728;6.674;2024-03-23T03:48:57;16.50;;;4.73;;
4047;SDS011;2038;51.728;6.674;2024-03-23T03:51:28;7.83;;;4.90;;
4047;SDS011;2038;51.728;6.674;2024-03-23T03:54:00;16.30;;;6.03;;
4047;SDS011;2038;51.728;6.674;2024-03-23T03:56:38;12.57;;;4.83;;
4047;SDS011;2038;51.728;6.674;2024-03-23T03:59:07;12.90;;;6.10;;
4047;SDS011;2038;51.728;6.674;2024-03-23T04:01:34;12.80;;;4.60;;
4047;SDS011;2038;51.728;6.674;2024-03-23T04:04:03;8.17;;;4.70;;
4047;SDS011;2038;51.728;6.674;2024-03-23T04:06:30;14.93;;;5.10;;
4047;SDS011;2038;51.728;6.674;2024-03-23T04:09:01;13.70;;;6.00;;
4047;SDS011;2038;51.728;6.674;2024-03-23T04:11:32;15.93;;;5.93;;
4047;SDS011;2038;51.728;6.674;2024-03-23T04:14:02;18.50;;;5.10;;
4047;SDS011;2038;51.728;6.674;2024-03-23T04:16:34;14.57;;;5.40;;
4047;SDS011;2038;51.728;6.674;2024-03-23T04:19:01;28.77;;;7.00;;
4047;SDS011;2038;51.728;6.674;2024-03-23T04:21:29;21.43;;;8.40;;
4047;SDS011;2038;51.728;6.674;2024-03-23T04:24:09;15.23;;;6.67;;
4047;SDS011;2038;51.728;6.674;2024-03-23T04:26:41;12.47;;;6.70;;
4047;SDS011;2038;51.728;6.674;2024-03-23T04:29:08;19.33;;;6.97;;
4047;SDS011;2038;51.728;6.674;2024-03-23T04:31:35;13.20;;;6.70;;
4047;SDS011;2038;51.728;6.674;2024-03-23T04:34:04;15.83;;;7.23;;
4047;SDS011;2038;51.728;6.674;2024-03-23T04:36:32;15.67;;;7.00;;
4047;SDS011;2038;51.728;6.674;2024-03-23T04:39:10;17.03;;;7.90;;
4047;SDS011;2038;51.728;6.674;2024-03-23T04:41:39;13.13;;;6.50;;
4047;SDS011;2038;51.728;6.674;2024-03-23T04:44:09;16.77;;;7.23;;
4047;SDS011;2038;51.728;6.674;2024-03-23T04:46:38;17.40;;;7.67;;
4047;SDS011;2038;51.728;6.674;2024-03-23T04:49:23;15.63;;;6.63;;
4047;SDS011;2038;51.728;6.674;2024-03-23T04:51:54;13.53;;;7.23;;
4047;SDS011;2038;51.728;6.674;2024-03-23T04:54:23;17.67;;;8.13;;
4047;SDS011;2038;51.728;6.674;2024-03-23T04:56:54;13.43;;;7.80;;
4047;SDS011;2038;51.728;6.674;2024-03-23T04:59:32;20.33;;;8.10;;
4047;SDS011;2038;51.728;6.674;2024-03-23T05:02:08;23.37;;;8.30;;
4047;SDS011;2038;51.728;6.674;2024-03-23T05:04:36;22.00;;;9.00;;
4047;SDS011;2038;51.728;6.674;2024-03-23T05:07:03;13.37;;;8.07;;
4047;SDS011;2038;51.728;6.674;2024-03-23T05:09:34;18.13;;;8.77;;
4047;SDS011;2038;51.728;6.674;2024-03-23T05:12:12;16.40;;;8.50;;
4047;SDS011;2038;51.728;6.674;2024-03-23T05:14:40;13.60;;;7.90;;
4047;SDS011;2038;51.728;6.674;2024-03-23T05:17:15;24.53;;;8.97;;
4047;SDS011;2038;51.728;6.674;2024-03-23T05:19:44;17.83;;;8.20;;
4047;SDS011;2038;51.728;6.674;2024-03-23T05:22:16;20.97;;;7.53;;
4047;SDS011;2038;51.728;6.674;2024-03-23T05:24:46;20.53;;;9.13;;
4047;SDS011;2038;51.728;6.674;2024-03-23T05:27:31;18.13;;;8.97;;
4047;SDS011;2038;51.728;6.674;2024-03-23T05:30:02;25.20;;;10.10;;
4047;SDS011;2038;51.728;6.674;2024-03-23T05:32:34;30.57;;;9.63;;
4047;SDS011;2038;51.728;6.674;2024-03-23T05:35:06;17.87;;;9.73;;
4047;SDS011;2038;51.728;6.674;2024-03-23T05:37:36;18.83;;;8.60;;
4047;SDS011;2038;51.728;6.674;2024-03-23T05:40:05;23.90;;;9.73;;
4047;SDS011;2038;51.728;6.674;2024-03-23T05:42:36;28.87;;;9.97;;
4047;SDS011;2038;51.728;6.674;2024-03-23T05:45:02;27.20;;;9.27;;
4047;SDS011;2038;51.728;6.674;2024-03-23T05:47:36;23.70;;;8.67;;
4047;SDS011;2038;51.728;6.674;2024-03-23T05:50:02;26.57;;;11.07;;
4047;SDS011;2038;51.728;6.674;2024-03-23T05:52:48;18.93;;;9.17;;
4047;SDS011;2038;51.728;6.674;2024-03-23T05:55:19;16.97;;;9.60;;
4047;SDS011;2038;51.728;6.674;2024-03-23T05:57:50;22.13;;;10.60;;
4047;SDS011;2038;51.728;6.674;2024-03-23T06:00:16;21.37;;;10.00;;
4047;SDS011;2038;51.728;6.674;2024-03-23T06:02:45;28.40;;;9.63;;
4047;SDS011;2038;51.728;6.674;2024-03-23T06:05:14;19.03;;;10.57;;
4047;SDS011;2038;51.728;6.674;2024-03-23T06:07:49;19.23;;;9.53;;
4047;SDS011;2038;51.728;6.674;2024-03-23T06:10:20;21.33;;;9.07;;
4047;SDS011;2038;51.728;6.674;2024-03-23T06:12:54;27.37;;;9.70;;
4047;SDS011;2038;51.728;6.674;2024-03-23T06:15:22;21.30;;;9.87;;
4047;SDS011;2038;51.728;6.674;2024-03-23T06:18:01;23.40;;;10.40;;
4047;SDS011;2038;51.728;6.674;2024-03-23T06:20:29;35.53;;;11.70;;
4047;SDS011;2038;51.728;6.674;2024-03-23T06:23:03;22.03;;;9.87;;
4047;SDS011;2038;51.728;6.674;2024-03-23T06:25:31;19.03;;;9.33;;
4047;SDS011;2038;51.728;6.674;2024-03-23T06:28:11;25.20;;;10.07;;
4047;SDS011;2038;51.728;6.674;2024-03-23T06:30:42;32.13;;;9.60;;
4047;SDS011;2038;51.728;6.674;2024-03-23T06:33:09;22.93;;;8.87;;
4047;SDS011;2038;51.728;6.674;2024-03-23T06:35:41;21.13;;;9.50;;
4047;SDS011;2038;51.728;6.674;2024-03-23T06:38:08;24.17;;;8.80;;
4047;SDS011;2038;51.728;6.674;2024-03-23T06:40:36;22.03;;;9.33;;
4047;SDS011;2038;51.728;6.674;2024-03-23T06:43:02;16.63;;;8.13;;
4047;SDS011;2038;51.728;6.674;2024-03-23T06:45:42;16.40;;;7.20;;
4047;SDS011;2038;51.728;6.674;2024-03-23T06:48:17;24.60;;;8.30;;
4047;SDS011;2038;51.728;6.674;2024-03-23T06:50:56;19.03;;;8.50;;
4047;SDS011;2038;51.728;6.674;2024-03-23T06:53:27;15.13;;;8.33;;
4047;SDS011;2038;51.728;6.674;2024-03-23T06:55:56;11.60;;;7.10;;
4047;SDS011;2038;51.728;6.674;2024-03-23T06:58:59;14.60;;;6.90;;
4047;SDS011;2038;51.728;6.674;2024-03-23T07:01:28;18.27;;;7.73;;
4047;SDS011;2038;51.728;6.674;2024-03-23T07:04:04;23.37;;;7.63;;
4047;SDS011;2038;51.728;6.674;2024-03-23T07:06:31;23.73;;;7.90;;
4047;SDS011;2038;51.728;6.674;2024-03-23T07:09:17;17.43;;;7.90;;
4047;SDS011;2038;51.728;6.674;2024-03-23T07:11:44;20.13;;;7.50;;
4047;SDS011;2038;51.728;6.674;2024-03-23T07:14:14;22.27;;;7.20;;
4047;SDS011;2038;51.728;6.674;2024-03-23T07:16:44;16.73;;;7.60;;
4047;SDS011;2038;51.728;6.674;2024-03-23T07:19:15;19.27;;;7.30;;
4047;SDS011;2038;51.728;6.674;2024-03-23T07:21:45;10.37;;;5.77;;
4047;SDS011;2038;51.728;6.674;2024-03-23T07:24:14;13.43;;;7.57;;
4047;SDS011;2038;51.728;6.674;2024-03-23T07:26:51;13.13;;;7.10;;
4047;SDS011;2038;51.728;6.674;2024-03-23T07:29:23;18.03;;;7.13;;
4047;SDS011;2038;51.728;6.674;2024-03-23T07:31:50;20.80;;;8.60;;
4047;SDS011;2038;51.728;6.674;2024-03-23T07:34:17;43.03;;;9.73;;
4047;SDS011;2038;51.728;6.674;2024-03-23T07:36:46;21.97;;;8.90;;
4047;SDS011;2038;51.728;6.674;2024-03-23T07:39:16;13.70;;;7.37;;
4047;SDS011;2038;51.728;6.674;2024-03-23T07:41:54;15.53;;;7.13;;
4047;SDS011;2038;51.728;6.674;2024-03-23T07:44:24;13.37;;;7.07;;
4047;SDS011;2038;51.728;6.674;2024-03-23T07:46:53;15.63;;;7.70;;
4047;SDS011;2038;51.728;6.674;2024-03-23T07:49:33;21.77;;;6.60;;
4047;SDS011;2038;51.728;6.674;2024-03-23T07:52:08;21.77;;;7.67;;
4047;SDS011;2038;51.728;6.674;2024-03-23T08:10:10;15.40;;;8.27;;
4047;SDS011;2038;51.728;6.674;2024-03-23T08:19:38;14.67;;;7.63;;
4047;SDS011;2038;51.728;6.674;2024-03-23T08:22:59;19.30;;;7.77;;
4047;SDS011;2038;51.728;6.674;2024-03-23T08:26:40;21.57;;;7.70;;
4047;SDS011;2038;51.728;6.674;2024-03-23T08:36:22;17.83;;;7.10;;
4047;SDS011;2038;51.728;6.674;2024-03-23T10:03:52;9.63;;;3.73;;
4047;SDS011;2038;51.728;6.674;2024-03-23T10:23:38;9.17;;;3.17;;
4047;SDS011;2038;51.728;6.674;2024-03-23T10:26:20;7.73;;;3.33;;
4047;SDS011;2038;51.728;6.674;2024-03-23T10:28:55;6.83;;;3.00;;
4047;SDS011;2038;51.728;6.674;2024-03-23T10:31:42;9.77;;;2.73;;
4047;SDS011;2038;51.728;6.674;2024-03-23T10:37:48;8.20;;;2.63;;
4047;SDS011;2038;51.728;6.674;2024-03-23T10:40:30;11.43;;;3.63;;
4047;SDS011;2038;51.728;6.674;2024-03-23T10:42:59;10.23;;;3.37;;
4047;SDS011;2038;51.728;6.674;2024-03-23T10:45:28;4.60;;;2.23;;
4047;SDS011;2038;51.728;6.674;2024-03-23T10:47:56;7.87;;;2.83;;
4047;SDS011;2038;51.728;6.674;2024-03-23T10:50:29;4.40;;;2.53;;
4047;SDS011;2038;51.728;6.674;2024-03-23T10:52:55;11.43;;;3.63;;
4047;SDS011;2038;51.728;6.674;2024-03-23T10:55:24;6.70;;;2.33;;
4047;SDS011;2038;51.728;6.674;2024-03-23T10:57:54;4.53;;;2.63;;
4047;SDS011;2038;51.728;6.674;2024-03-23T11:00:36;4.07;;;2.50;;
4047;SDS011;2038;51.728;6.674;2024-03-23T11:06:01;5.87;;;2.47;;
4047;SDS011;2038;51.728;6.674;2024-03-23T11:08:42;5.77;;;2.60;;
4047;SDS011;2038;51.728;6.674;2024-03-23T11:11:28;4.90;;;2.17;;
4047;SDS011;2038;51.728;6.674;2024-03-23T11:13:56;4.60;;;2.80;;
4047;SDS011;2038;51.728;6.674;2024-03-23T11:16:25;5.70;;;2.30;;
4047;SDS011;2038;51.728;6.674;2024-03-23T11:18:55;8.13;;;2.77;;
4047;SDS011;2038;51.728;6.674;2024-03-23T11:22:04;7.67;;;2.70;;
4047;SDS011;2038;51.728;6.674;2024-03-23T11:25:21;5.37;;;2.83;;
4047;SDS011;2038;51.728;6.674;2024-03-23T11:30:43;5.37;;;3.73;;
4047;SDS011;2038;51.728;6.674;2024-03-23T11:33:13;9.93;;;3.80;;
4047;SDS011;2038;51.728;6.674;2024-03-23T11:35:44;11.10;;;3.40;;
4047;SDS011;2038;51.728;6.674;2024-03-23T11:41:12;9.30;;;3.40;;
4047;SDS011;2038;51.728;6.674;2024-03-23T11:43:47;8.00;;;3.43;;
4047;SDS011;2038;51.728;6.674;2024-03-23T11:46:25;12.73;;;3.83;;
4047;SDS011;2038;51.728;6.674;2024-03-23T11:48:55;10.53;;;3.63;;
4047;SDS011;2038;51.728;6.674;2024-03-23T11:51:24;6.20;;;3.03;;
4047;SDS011;2038;51.728;6.674;2024-03-23T11:54:23;14.90;;;3.50;;
4047;SDS011;2038;51.728;6.674;2024-03-23T11:56:59;16.43;;;4.90;;
4047;SDS011;2038;51.728;6.674;2024-03-23T11:59:44;6.87;;;3.87;;
4047;SDS011;2038;51.728;6.674;2024-03-23T12:02:12;7.17;;;3.10;;
4047;SDS011;2038;51.728;6.674;2024-03-23T12:04:52;11.43;;;2.90;;
4047;SDS011;2038;51.728;6.674;2024-03-23T12:07:23;4.63;;;3.50;;
4047;SDS011;2038;51.728;6.674;2024-03-23T12:10:10;6.83;;;3.20;;
4047;SDS011;2038;51.728;6.674;2024-03-23T12:12:38;10.83;;;3.43;;
4047;SDS011;2038;51.728;6.674;2024-03-23T12:15:05;8.83;;;3.80;;
4047;SDS011;2038;51.728;6.674;2024-03-23T12:17:41;7.87;;;3.60;;
4047;SDS011;2038;51.728;6.674;2024-03-23T12:20:11;7.23;;;3.20;;
4047;SDS011;2038;51.728;6.674;2024-03-23T12:22:43;7.60;;;4.10;;
4047;SDS011;2038;51.728;6.674;2024-03-23T12:25:14;7.97;;;3.60;;
4047;SDS011;2038;51.728;6.674;2024-03-23T12:27:48;7.87;;;3.17;;
4047;SDS011;2038;51.728;6.674;2024-03-23T12:30:40;7.57;;;3.07;;
4047;SDS011;2038;51.728;6.674;2024-03-23T12:33:08;13.97;;;4.00;;
4047;SDS011;2038;51.728;6.674;2024-03-23T12:35:36;7.43;;;3.73;;
4047;SDS011;2038;51.728;6.674;2024-03-23T12:38:04;8.30;;;4.63;;
4047;SDS011;2038;51.728;6.674;2024-03-23T12:40:35;9.30;;;4.53;;
4047;SDS011;2038;51.728;6.674;2024-03-23T12:43:07;5.67;;;3.30;;
4047;SDS011;2038;51.728;6.674;2024-03-23T12:45:40;14.23;;;3.00;;
4047;SDS011;2038;51.728;6.674;2024-03-23T12:48:28;7.70;;;2.90;;
4047;SDS011;2038;51.728;6.674;2024-03-23T12:51:05;12.03;;;3.10;;
4047;SDS011;2038;51.728;6.674;2024-03-23T12:53:32;4.30;;;2.20;;
4047;SDS011;2038;51.728;6.674;2024-03-23T12:56:00;10.77;;;2.30;;
4047;SDS011;2038;51.728;6.674;2024-03-23T12:58:34;4.70;;;1.83;;
4047;SDS011;2038;51.728;6.674;2024-03-23T13:01:08;9.03;;;2.60;;
4047;SDS011;2038;51.728;6.674;2024-03-23T13:03:39;11.20;;;3.00;;
4047;SDS011;2038;51.728;6.674;2024-03-23T13:06:13;13.50;;;2.43;;
4047;SDS011;2038;51.728;6.674;2024-03-23T13:09:05;2.63;;;1.80;;
4047;SDS011;2038;51.728;6.674;2024-03-23T13:11:42;6.13;;;2.70;;
4047;SDS011;2038;51.728;6.674;2024-03-23T13:14:13;5.13;;;2.27;;
4047;SDS011;2038;51.728;6.674;2024-03-23T13:16:52;7.07;;;2.07;;
4047;SDS011;2038;51.728;6.674;2024-03-23T13:19:21;7.23;;;2.07;;
4047;SDS011;2038;51.728;6.674;2024-03-23T13:22:09;3.07;;;1.60;;
4047;SDS011;2038;51.728;6.674;2024-03-23T13:25:13;6.67;;;1.83;;
4047;SDS011;2038;51.728;6.674;2024-03-23T13:28:03;7.30;;;2.43;;
4047;SDS011;2038;51.728;6.674;2024-03-23T13:30:32;4.47;;;2.37;;
4047;SDS011;2038;51.728;6.674;2024-03-23T13:33:20;6.07;;;2.50;;
4047;SDS011;2038;51.728;6.674;2024-03-23T13:36:02;11.07;;;2.80;;
4047;SDS011;2038;51.728;6.674;2024-03-23T13:38:39;2.40;;;2.20;;
4047;SDS011;2038;51.728;6.674;2024-03-23T13:43:48;7.13;;;2.33;;
4047;SDS011;2038;51.728;6.674;2024-03-23T13:46:17;3.33;;;1.93;;
4047;SDS011;2038;51.728;6.674;2024-03-23T13:48:52;4.13;;;2.70;;
4047;SDS011;2038;51.728;6.674;2024-03-23T13:51:47;4.03;;;2.10;;
4047;SDS011;2038;51.728;6.674;2024-03-23T13:54:18;10.27;;;2.53;;
4047;SDS011;2038;51.728;6.674;2024-03-23T13:57:00;8.80;;;3.23;;
4047;SDS011;2038;51.728;6.674;2024-03-23T13:59:51;7.50;;;1.90;;
4047;SDS011;2038;51.728;6.674;2024-03-23T14:02:25;5.00;;;2.90;;
4047;SDS011;2038;51.728;6.674;2024-03-23T14:13:48;2.03;;;1.83;;
4047;SDS011;2038;51.728;6.674;2024-03-23T14:20:12;9.07;;;2.37;;
4047;SDS011;2038;51.728;6.674;2024-03-23T14:22:39;4.73;;;2.90;;
4047;SDS011;2038;51.728;6.674;2024-03-23T14:25:06;4.67;;;2.17;;
4047;SDS011;2038;51.728;6.674;2024-03-23T14:27:33;3.00;;;2.50;;
4047;SDS011;2038;51.728;6.674;2024-03-23T14:30:02;5.23;;;2.13;;
4047;SDS011;2038;51.728;6.674;2024-03-23T14:32:33;3.20;;;2.20;;
4047;SDS011;2038;51.728;6.674;2024-03-23T14:35:01;7.07;;;2.37;;
4047;SDS011;2038;51.728;6.674;2024-03-23T14:37:28;8.87;;;2.33;;
4047;SDS011;2038;51.728;6.674;2024-03-23T14:39:55;7.43;;;1.97;;
4047;SDS011;2038;51.728;6.674;2024-03-23T14:42:22;7.50;;;2.67;;
4047;SDS011;2038;51.728;6.674;2024-03-23T14:44:49;12.23;;;2.13;;
4047;SDS011;2038;51.728;6.674;2024-03-23T14:47:16;6.23;;;2.60;;
4047;SDS011;2038;51.728;6.674;2024-03-23T14:49:44;7.73;;;2.20;;
4047;SDS011;2038;51.728;6.674;2024-03-23T14:52:18;5.87;;;2.10;;
4047;SDS011;2038;51.728;6.674;2024-03-23T14:54:45;9.10;;;2.17;;
4047;SDS011;2038;51.728;6.674;2024-03-23T14:57:12;10.23;;;2.30;;
4047;SDS011;2038;51.728;6.674;2024-03-23T14:59:38;6.70;;;2.13;;
4047;SDS011;2038;51.728;6.674;2024-03-23T15:02:11;4.83;;;2.50;;
4047;SDS011;2038;51.728;6.674;2024-03-23T15:04:38;6.37;;;1.93;;
4047;SDS011;2038;51.728;6.674;2024-03-23T15:07:06;9.53;;;1.90;;
4047;SDS011;2038;51.728;6.674;2024-03-23T15:09:33;15.27;;;3.20;;
4047;SDS011;2038;51.728;6.674;2024-03-23T15:11:59;3.83;;;2.60;;
4047;SDS011;2038;51.728;6.674;2024-03-23T15:14:25;5.40;;;2.33;;
4047;SDS011;2038;51.728;6.674;2024-03-23T15:16:52;7.63;;;3.10;;
4047;SDS011;2038;51.728;6.674;2024-03-23T15:19:19;6.23;;;2.37;;
4047;SDS011;2038;51.728;6.674;2024-03-23T15:21:45;8.20;;;2.63;;
4047;SDS011;2038;51.728;6.674;2024-03-23T15:24:11;18.43;;;2.93;;
4047;SDS011;2038;51.728;6.674;2024-03-23T15:27:25;13.00;;;2.53;;
4047;SDS011;2038;51.728;6.674;2024-03-23T15:32:43;4.23;;;2.40;;
4047;SDS011;2038;51.728;6.674;2024-03-23T15:35:19;3.97;;;2.20;;
4047;SDS011;2038;51.728;6.674;2024-03-23T15:38:35;9.97;;;2.60;;
4047;SDS011;2038;51.728;6.674;2024-03-23T15:41:28;7.60;;;3.13;;
4047;SDS011;2038;51.728;6.674;2024-03-23T15:44:02;8.83;;;3.23;;
4047;SDS011;2038;51.728;6.674;2024-03-23T17:25:25;12.23;;;2.87;;
4047;SDS011;2038;51.728;6.674;2024-03-23T17:27:51;4.77;;;2.10;;
4047;SDS011;2038;51.728;6.674;2024-03-23T17:30:18;4.00;;;2.57;;
4047;SDS011;2038;51.728;6.674;2024-03-23T17:32:44;4.30;;;2.00;;
4047;SDS011;2038;51.728;6.674;2024-03-23T17:35:11;5.90;;;2.50;;
4047;SDS011;2038;51.728;6.674;2024-03-23T17:37:38;4.47;;;1.93;;
4047;SDS011;2038;51.728;6.674;2024-03-23T17:40:07;3.50;;;1.57;;
4047;SDS011;2038;51.728;6.674;2024-03-23T17:42:34;3.20;;;1.47;;
4047;SDS011;2038;51.728;6.674;2024-03-23T17:48:19;3.43;;;2.20;;
4047;SDS011;2038;51.728;6.674;2024-03-23T17:51:05;2.20;;;1.93;;
4047;SDS011;2038;51.728;6.674;2024-03-23T17:53:51;1.80;;;1.70;;
4047;SDS011;2038;51.728;6.674;2024-03-23T17:56:33;3.00;;;2.60;;
4047;SDS011;2038;51.728;6.674;2024-03-23T18:02:28;1.90;;;1.80;;
4047;SDS011;2038;51.728;6.674;2024-03-23T18:05:23;2.90;;;2.00;;
4047;SDS011;2038;51.728;6.674;2024-03-23T18:08:01;1.70;;;1.50;;
4047;SDS011;2038;51.728;6.674;2024-03-23T18:10:55;7.70;;;2.10;;
4047;SDS011;2038;51.728;6.674;2024-03-23T18:13:25;5.70;;;2.40;;
4047;SDS011;2038;51.728;6.674;2024-03-23T18:16:12;2.10;;;1.90;;
4047;SDS011;2038;51.728;6.674;2024-03-23T18:18:51;2.03;;;1.93;;
4047;SDS011;2038;51.728;6.674;2024-03-23T18:21:28;4.17;;;2.07;;
4047;SDS011;2038;51.728;6.674;2024-03-23T18:23:57;6.87;;;2.07;;
4047;SDS011;2038;51.728;6.674;2024-03-23T18:26:31;2.40;;;1.90;;
4047;SDS011;2038;51.728;6.674;2024-03-23T18:29:03;2.23;;;1.50;;
4047;SDS011;2038;51.728;6.674;2024-03-23T18:31:35;9.20;;;1.70;;
4047;SDS011;2038;51.728;6.674;2024-03-23T18:34:10;3.17;;;1.97;;
4047;SDS011;2038;51.728;6.674;2024-03-23T18:36:42;3.33;;;1.67;;
4047;SDS011;2038;51.728;6.674;2024-03-23T18:39:09;1.87;;;1.77;;
4047;SDS011;2038;51.728;6.674;2024-03-23T18:41:40;2.20;;;2.10;;
4047;SDS011;2038;51.728;6.674;2024-03-23T18:44:08;5.33;;;2.03;;
4047;SDS011;2038;51.728;6.674;2024-03-23T18:46:34;2.60;;;1.77;;
4047;SDS011;2038;51.728;6.674;2024-03-23T18:55:10;3.20;;;1.93;;
4047;SDS011;2038;51.728;6.674;2024-03-23T18:57:43;2.30;;;2.10;;
4047;SDS011;2038;51.728;6.674;2024-03-23T19:00:11;2.80;;;2.40;;
4047;SDS011;2038;51.728;6.674;2024-03-23T19:03:17;2.60;;;2.07;;
4047;SDS011;2038;51.728;6.674;2024-03-23T19:08:19;3.93;;;2.10;;
4047;SDS011;2038;51.728;6.674;2024-03-23T19:10:59;3.93;;;2.00;;
4047;SDS011;2038;51.728;6.674;2024-03-23T19:13:27;4.60;;;3.67;;
4047;SDS011;2038;51.728;6.674;2024-03-23T19:15:55;5.93;;;1.90;;
4047;SDS011;2038;51.728;6.674;2024-03-23T19:18:25;2.50;;;2.30;;
4047;SDS011;2038;51.728;6.674;2024-03-23T19:20:52;4.90;;;2.03;;
4047;SDS011;2038;51.728;6.674;2024-03-23T19:23:20;3.10;;;2.03;;
4047;SDS011;2038;51.728;6.674;2024-03-23T19:25:57;6.63;;;2.50;;
4047;SDS011;2038;51.728;6.674;2024-03-23T19:28:25;2.83;;;1.80;;
4047;SDS011;2038;51.728;6.674;2024-03-23T19:30:53;4.17;;;2.33;;
4047;SDS011;2038;51.728;6.674;2024-03-23T19:33:20;4.70;;;1.60;;
4047;SDS011;2038;51.728;6.674;2024-03-23T19:35:52;7.33;;;2.70;;
4047;SDS011;2038;51.728;6.674;2024-03-23T19:38:21;3.70;;;2.10;;
4047;SDS011;2038;51.728;6.674;2024-03-23T19:40:54;3.73;;;2.50;;
4047;SDS011;2038;51.728;6.674;2024-03-23T19:43:25;4.70;;;3.77;;
4047;SDS011;2038;51.728;6.674;2024-03-23T19:45:53;4.00;;;3.60;;
4047;SDS011;2038;51.728;6.674;2024-03-23T19:48:20;4.83;;;3.00;;
4047;SDS011;2038;51.728;6.674;2024-03-23T19:50:56;3.60;;;3.13;;
4047;SDS011;2038;51.728;6.674;2024-03-23T19:53:24;6.63;;;3.17;;
4047;SDS011;2038;51.728;6.674;2024-03-23T20:02:44;5.53;;;3.57;;
4047;SDS011;2038;51.728;6.674;2024-03-23T20:05:11;5.50;;;2.90;;
4047;SDS011;2038;51.728;6.674;2024-03-23T20:07:37;4.40;;;2.70;;
4047;SDS011;2038;51.728;6.674;2024-03-23T20:10:04;3.33;;;2.80;;
4047;SDS011;2038;51.728;6.674;2024-03-23T20:12:31;2.87;;;2.60;;
4047;SDS011;2038;51.728;6.674;2024-03-23T20:14:57;5.13;;;2.70;;
4047;SDS011;2038;51.728;6.674;2024-03-23T20:17:24;3.80;;;3.10;;
4047;SDS011;2038;51.728;6.674;2024-03-23T20:19:51;4.97;;;3.27;;
4047;SDS011;2038;51.728;6.674;2024-03-23T20:22:17;4.20;;;3.60;;
4047;SDS011;2038;51.728;6.674;2024-03-23T20:24:43;4.40;;;3.50;;
4047;SDS011;2038;51.728;6.674;2024-03-23T20:27:10;4.80;;;3.83;;
4047;SDS011;2038;51.728;6.674;2024-03-23T20:29:36;5.33;;;4.50;;
4047;SDS011;2038;51.728;6.674;2024-03-23T20:32:02;4.77;;;3.10;;
4047;SDS011;2038;51.728;6.674;2024-03-23T20:34:29;10.00;;;3.87;;
4047;SDS011;2038;51.728;6.674;2024-03-23T20:36:55;4.60;;;3.43;;
4047;SDS011;2038;51.728;6.674;2024-03-23T20:39:22;7.17;;;4.30;;
4047;SDS011;2038;51.728;6.674;2024-03-23T20:41:48;4.80;;;3.20;;
4047;SDS011;2038;51.728;6.674;2024-03-23T20:44:15;8.03;;;3.80;;
4047;SDS011;2038;51.728;6.674;2024-03-23T20:46:42;12.50;;;4.60;;
4047;SDS011;2038;51.728;6.674;2024-03-23T20:49:15;5.07;;;3.40;;
4047;SDS011;2038;51.728;6.674;2024-03-23T20:52:06;6.20;;;4.27;;
4047;SDS011;2038;51.728;6.674;2024-03-23T20:55:00;4.70;;;3.60;;
4047;SDS011;2038;51.728;6.674;2024-03-23T21:00:26;4.90;;;4.40;;
4047;SDS011;2038;51.728;6.674;2024-03-23T21:02:52;8.63;;;4.10;;
4047;SDS011;2038;51.728;6.674;2024-03-23T21:05:19;8.03;;;5.10;;
4047;SDS011;2038;51.728;6.674;2024-03-23T21:10:55;5.30;;;4.80;;
4047;SDS011;2038;51.728;6.674;2024-03-23T21:14:04;8.70;;;4.97;;
4047;SDS011;2038;51.728;6.674;2024-03-23T21:16:46;5.23;;;4.30;;
4047;SDS011;2038;51.728;6.674;2024-03-23T21:19:35;11.43;;;6.07;;
4047;SDS011;2038;51.728;6.674;2024-03-23T21:22:52;8.53;;;6.10;;
4047;SDS011;2038;51.728;6.674;2024-03-23T21:25:19;14.00;;;5.37;;
4047;SDS011;2038;51.728;6.674;2024-03-23T21:28:22;8.83;;;5.63;;
4047;SDS011;2038;51.728;6.674;2024-03-23T21:30:49;7.10;;;4.03;;
4047;SDS011;2038;51.728;6.674;2024-03-23T21:33:37;6.97;;;4.30;;
4047;SDS011;2038;51.728;6.674;2024-03-23T21:36:18;5.80;;;4.60;;